createdAt,value
2018-04-27T00:01:09.126Z,7.20
2018-04-27T00:03:36.696Z,7.10
2018-04-27T00:06:04.320Z,7.10
2018-04-27T00:08:32.683Z,7.10
2018-04-27T00:11:00.992Z,7.00
2018-04-27T00:13:28.554Z,7.00
2018-04-27T00:15:56.140Z,7.00
2018-04-27T00:18:23.728Z,7.00
2018-04-27T00:20:52.086Z,7.00
2018-04-27T00:23:19.665Z,6.90
2018-04-27T00:25:48.734Z,6.90
2018-04-27T00:28:16.325Z,6.90
2018-04-27T00:30:43.930Z,6.90
2018-04-27T00:33:11.507Z,6.80
2018-04-27T00:35:39.093Z,6.80
2018-04-27T00:38:06.687Z,6.80
2018-04-27T00:40:35.012Z,6.70
2018-04-27T00:43:02.616Z,6.70
2018-04-27T00:45:30.974Z,6.70
2018-04-27T00:47:58.522Z,6.60
2018-04-27T00:50:26.112Z,6.60
2018-04-27T00:53:05.470Z,6.60
2018-04-27T00:55:33.807Z,6.60
2018-04-27T00:58:01.369Z,6.60
2018-04-27T01:00:28.923Z,6.60
2018-04-27T01:02:56.492Z,6.60
2018-04-27T01:05:25.564Z,6.60
2018-04-27T01:07:53.165Z,6.60
2018-04-27T01:10:21.491Z,6.60
2018-04-27T01:12:49.080Z,6.60
2018-04-27T01:15:16.815Z,6.60
2018-04-27T01:17:44.468Z,6.60
2018-04-27T01:20:12.085Z,6.60
2018-04-27T01:22:39.716Z,6.60
2018-04-27T01:25:07.321Z,6.60
2018-04-27T01:27:35.675Z,6.60
2018-04-27T01:30:03.292Z,6.50
2018-04-27T01:32:30.895Z,6.50
2018-04-27T01:34:58.511Z,6.50
2018-04-27T01:37:26.149Z,6.50
2018-04-27T01:39:54.539Z,6.50
2018-04-27T01:42:22.148Z,6.50
2018-04-27T01:44:49.726Z,6.50
2018-04-27T01:47:18.884Z,6.40
2018-04-27T01:49:46.466Z,6.40
2018-04-27T01:52:14.091Z,6.40
2018-04-27T01:54:41.978Z,6.40
2018-04-27T01:57:09.631Z,6.40
2018-04-27T01:59:37.227Z,6.40
2018-04-27T02:02:05.580Z,6.30
2018-04-27T02:04:33.174Z,6.30
2018-04-27T02:07:01.545Z,6.30
2018-04-27T02:09:29.212Z,6.30
2018-04-27T02:11:56.815Z,6.20
2018-04-27T02:14:24.425Z,6.20
2018-04-27T02:16:51.985Z,6.20
2018-04-27T02:19:19.599Z,6.20
2018-04-27T02:21:47.230Z,6.10
2018-04-27T02:24:15.627Z,6.10
2018-04-27T02:26:43.237Z,6.10
2018-04-27T02:29:10.838Z,6.10
2018-04-27T02:31:38.545Z,6.10
2018-04-27T02:34:06.163Z,6.10
2018-04-27T02:36:33.805Z,6.00
2018-04-27T02:39:01.416Z,6.00
2018-04-27T02:41:29.042Z,6.00
2018-04-27T02:43:56.671Z,6.00
2018-04-27T02:46:24.285Z,6.00
2018-04-27T02:48:51.874Z,6.00
2018-04-27T02:51:19.500Z,5.90
2018-04-27T02:53:47.077Z,5.90
2018-04-27T02:56:14.707Z,5.90
2018-04-27T02:58:42.317Z,5.90
2018-04-27T03:01:09.897Z,5.90
2018-04-27T03:03:37.507Z,5.80
2018-04-27T03:06:05.095Z,5.80
2018-04-27T03:08:32.753Z,5.80
2018-04-27T03:11:00.363Z,5.80
2018-04-27T03:13:28.731Z,5.70
2018-04-27T03:15:56.381Z,5.70
2018-04-27T03:18:24.765Z,5.70
2018-04-27T03:20:52.385Z,5.60
2018-04-27T03:23:20.015Z,5.60
2018-04-27T03:25:48.371Z,5.60
2018-04-27T03:28:15.985Z,5.60
2018-04-27T03:30:43.577Z,5.60
2018-04-27T03:33:11.185Z,5.50
2018-04-27T03:35:38.807Z,5.50
2018-04-27T03:38:06.430Z,5.50
2018-04-27T03:40:34.927Z,5.40
2018-04-27T03:43:02.517Z,5.40
2018-04-27T03:45:30.119Z,5.40
2018-04-27T03:47:57.716Z,5.40
2018-04-27T03:50:25.344Z,5.40
2018-04-27T03:52:52.942Z,5.40
2018-04-27T03:55:20.544Z,5.40
2018-04-27T03:57:48.912Z,5.40
2018-04-27T04:00:29.329Z,5.40
2018-04-27T04:03:08.708Z,5.40
2018-04-27T04:05:37.090Z,5.30
2018-04-27T04:08:05.473Z,5.40
2018-04-27T04:10:33.897Z,5.40
2018-04-27T04:13:01.507Z,5.30
2018-04-27T04:15:29.889Z,5.40
2018-04-27T04:17:58.236Z,5.40
2018-04-27T04:20:25.871Z,5.40
2018-04-27T04:22:53.483Z,5.40
2018-04-27T04:25:21.087Z,5.50
2018-04-27T04:27:48.745Z,5.50
2018-04-27T04:30:16.296Z,5.50
2018-04-27T04:32:43.858Z,5.60
2018-04-27T04:35:11.569Z,5.70
2018-04-27T04:37:39.201Z,5.70
2018-04-27T04:40:07.253Z,5.80
2018-04-27T04:42:34.873Z,5.80
2018-04-27T04:45:03.322Z,6.10
2018-04-27T04:47:30.837Z,6.10
2018-04-27T04:49:58.464Z,6.30
2018-04-27T04:52:26.173Z,6.50
2018-04-27T04:54:53.747Z,6.70
2018-04-27T04:57:21.549Z,6.90
2018-04-27T04:59:49.177Z,7.50
2018-04-27T05:02:16.773Z,8.30
2018-04-27T05:04:44.361Z,8.70
2018-04-27T05:07:12.688Z,8.70
2018-04-27T05:09:40.343Z,8.70
2018-04-27T05:12:08.057Z,8.60
2018-04-27T05:14:35.673Z,8.40
2018-04-27T05:17:03.280Z,8.20
2018-04-27T05:19:31.643Z,8.30
2018-04-27T05:21:59.264Z,8.30
2018-04-27T05:24:26.855Z,9.00
2018-04-27T05:26:54.457Z,10.20
2018-04-27T05:29:22.829Z,12.50
2018-04-27T05:31:50.437Z,12.50
2018-04-27T05:34:18.064Z,13.40
2018-04-27T05:36:45.756Z,13.90
2018-04-27T05:39:13.374Z,14.50
2018-04-27T05:41:41.773Z,16.60
2018-04-27T05:44:09.680Z,16.60
2018-04-27T05:46:37.341Z,17.60
2018-04-27T05:49:04.934Z,18.80
2018-04-27T05:51:32.476Z,19.80
2018-04-27T05:54:00.056Z,20.70
2018-04-27T05:56:28.486Z,20.40
2018-04-27T05:58:56.912Z,19.70
2018-04-27T06:01:25.255Z,19.40
2018-04-27T06:04:04.821Z,19.40
2018-04-27T06:06:33.488Z,19.40
2018-04-27T06:09:05.963Z,19.40
2018-04-27T06:11:33.613Z,19.70
2018-04-27T06:14:01.415Z,19.50
2018-04-27T06:16:29.395Z,20.40
2018-04-27T06:18:57.088Z,20.40
2018-04-27T06:21:31.233Z,20.00
2018-04-27T06:24:06.115Z,19.60
2018-04-27T06:26:33.731Z,19.00
2018-04-27T06:29:01.367Z,17.90
2018-04-27T06:31:28.977Z,17.50
2018-04-27T06:33:57.509Z,17.00
2018-04-27T06:36:25.179Z,17.00
2018-04-27T06:39:00.839Z,16.70
2018-04-27T06:41:28.631Z,16.60
2018-04-27T06:43:56.245Z,16.10
2018-04-27T06:46:23.875Z,15.80
2018-04-27T06:48:51.506Z,15.50
2018-04-27T06:51:19.112Z,15.60
2018-04-27T06:53:46.712Z,15.60
2018-04-27T06:56:14.379Z,15.60
2018-04-27T06:58:42.779Z,15.70
2018-04-27T07:01:11.147Z,15.80
2018-04-27T07:03:38.763Z,15.80
2018-04-27T07:06:06.321Z,15.80
2018-04-27T07:08:34.007Z,15.90
2018-04-27T07:11:01.705Z,15.80
2018-04-27T07:13:29.351Z,15.80
2018-04-27T07:15:56.927Z,15.80
2018-04-27T07:18:24.595Z,15.70
2018-04-27T07:20:52.941Z,16.00
2018-04-27T07:23:20.682Z,15.90
2018-04-27T07:25:48.400Z,15.80
2018-04-27T07:28:15.938Z,16.00
2018-04-27T07:30:51.452Z,15.80
2018-04-27T07:33:19.054Z,15.90
2018-04-27T07:35:46.678Z,15.70
2018-04-27T07:38:14.332Z,15.40
2018-04-27T07:40:41.963Z,15.70
2018-04-27T07:43:09.590Z,15.80
2018-04-27T07:45:38.016Z,15.90
2018-04-27T07:48:05.588Z,15.90
2018-04-27T07:50:33.163Z,16.00
2018-04-27T07:53:00.795Z,15.90
2018-04-27T07:55:28.477Z,15.90
2018-04-27T07:57:56.089Z,15.90
2018-04-27T08:00:23.697Z,15.70
2018-04-27T08:02:51.323Z,15.70
2018-04-27T08:05:18.939Z,15.90
2018-04-27T08:07:46.484Z,16.10
2018-04-27T08:10:14.085Z,16.20
2018-04-27T08:12:41.662Z,16.10
2018-04-27T08:15:10.093Z,16.40
2018-04-27T08:17:37.856Z,16.40
2018-04-27T08:20:05.519Z,16.50
2018-04-27T08:22:34.941Z,16.80
2018-04-27T08:25:02.535Z,16.80
2018-04-27T08:27:30.927Z,16.90
2018-04-27T08:30:01.747Z,16.90
2018-04-27T08:32:30.061Z,16.90
2018-04-27T08:34:57.683Z,16.80
2018-04-27T08:37:26.067Z,17.20
2018-04-27T08:39:53.666Z,17.20
2018-04-27T08:42:21.263Z,17.30
2018-04-27T08:44:48.873Z,17.10
2018-04-27T08:47:16.484Z,17.10
2018-04-27T08:49:44.097Z,16.40
2018-04-27T08:52:11.770Z,16.50
2018-04-27T08:54:39.452Z,16.60
2018-04-27T08:57:07.050Z,16.80
2018-04-27T08:59:35.424Z,17.30
2018-04-27T09:02:03.860Z,17.40
2018-04-27T09:04:31.437Z,17.40
2018-04-27T09:06:59.070Z,17.20
2018-04-27T09:09:26.710Z,17.40
2018-04-27T09:11:55.225Z,17.30
2018-04-27T09:14:22.789Z,17.20
2018-04-27T09:16:50.438Z,17.30
2018-04-27T09:19:18.047Z,17.40
2018-04-27T09:21:45.646Z,17.50
2018-04-27T09:24:13.265Z,17.60
2018-04-27T09:26:40.878Z,17.60
2018-04-27T09:29:08.494Z,17.70
2018-04-27T09:31:36.843Z,17.70
2018-04-27T09:34:04.664Z,17.70
2018-04-27T09:36:32.262Z,17.80
2018-04-27T09:39:00.093Z,17.90
2018-04-27T09:41:27.744Z,17.90
2018-04-27T09:43:55.348Z,17.90
2018-04-27T09:46:22.915Z,18.00
2018-04-27T09:48:50.534Z,18.00
2018-04-27T09:51:18.135Z,18.00
2018-04-27T09:53:45.740Z,18.10
2018-04-27T09:56:14.188Z,18.10
2018-04-27T09:58:41.777Z,18.10
2018-04-27T10:01:10.735Z,18.20
2018-04-27T10:03:38.297Z,18.20
2018-04-27T10:06:07.415Z,18.10
2018-04-27T10:08:36.098Z,18.00
2018-04-27T10:11:03.743Z,18.00
2018-04-27T10:13:31.379Z,18.10
2018-04-27T10:15:59.383Z,18.00
2018-04-27T10:18:27.979Z,17.90
2018-04-27T10:20:58.247Z,18.00
2018-04-27T10:23:25.925Z,18.00
2018-04-27T10:25:53.561Z,17.90
2018-04-27T10:28:21.233Z,18.10
2018-04-27T10:30:48.848Z,18.20
2018-04-27T10:33:16.522Z,17.70
2018-04-27T10:35:44.163Z,17.90
2018-04-27T10:38:12.627Z,18.20
2018-04-27T10:40:40.227Z,18.20
2018-04-27T10:43:07.997Z,18.20
2018-04-27T10:45:35.873Z,18.10
2018-04-27T10:48:03.519Z,18.10
2018-04-27T10:50:31.166Z,18.00
2018-04-27T10:52:59.544Z,18.40
2018-04-27T10:55:27.996Z,18.30
2018-04-27T10:57:55.635Z,18.30
2018-04-27T11:00:27.987Z,17.90
2018-04-27T11:02:55.672Z,17.80
2018-04-27T11:05:23.295Z,18.00
2018-04-27T11:07:52.139Z,18.60
2018-04-27T11:10:19.695Z,18.60
2018-04-27T11:12:47.348Z,18.50
2018-04-27T11:15:15.228Z,18.60
2018-04-27T11:17:42.873Z,18.80
2018-04-27T11:20:10.490Z,18.90
2018-04-27T11:22:38.899Z,18.90
2018-04-27T11:25:06.563Z,18.90
2018-04-27T11:27:34.145Z,19.10
2018-04-27T11:30:01.757Z,19.30
2018-04-27T11:32:30.131Z,19.00
2018-04-27T11:34:58.465Z,19.30
2018-04-27T11:37:26.093Z,19.30
2018-04-27T11:39:53.686Z,19.30
2018-04-27T11:42:21.365Z,19.50
2018-04-27T11:44:48.963Z,19.60
2018-04-27T11:47:16.637Z,19.70
2018-04-27T11:49:44.226Z,19.70
2018-04-27T11:52:11.845Z,19.80
2018-04-27T11:54:39.463Z,19.70
2018-04-27T11:57:07.089Z,19.40
2018-04-27T11:59:36.747Z,19.40
2018-04-27T12:02:04.352Z,19.80
2018-04-27T12:04:31.957Z,20.50
2018-04-27T12:07:07.253Z,21.90
2018-04-27T12:09:44.956Z,23.60
2018-04-27T12:12:16.513Z,25.10
2018-04-27T12:14:45.201Z,26.60
2018-04-27T12:17:12.849Z,27.70
2018-04-27T12:19:40.513Z,28.60
2018-04-27T12:22:08.181Z,29.40
2018-04-27T12:24:35.867Z,29.80
2018-04-27T12:27:03.499Z,30.70
2018-04-27T12:29:31.123Z,30.20
2018-04-27T12:31:58.784Z,30.50
2018-04-27T12:34:26.329Z,29.20
2018-04-27T12:36:53.949Z,29.80
2018-04-27T12:39:23.843Z,30.00
2018-04-27T12:41:52.779Z,30.40
2018-04-27T12:44:20.535Z,30.80
2018-04-27T12:46:56.392Z,31.40
2018-04-27T12:49:24.454Z,32.10
2018-04-27T12:51:52.866Z,32.20
2018-04-27T12:54:20.485Z,32.40
2018-04-27T12:56:51.879Z,32.20
2018-04-27T12:59:22.442Z,32.50
2018-04-27T13:01:51.011Z,31.50
2018-04-27T13:04:18.611Z,31.50
2018-04-27T13:06:46.246Z,31.90
2018-04-27T13:09:13.975Z,31.50
2018-04-27T13:11:42.532Z,30.70
2018-04-27T13:14:10.127Z,30.70
2018-04-27T13:16:37.698Z,31.10
2018-04-27T13:19:05.318Z,30.80
2018-04-27T13:21:34.061Z,30.00
2018-04-27T13:24:01.702Z,30.00
2018-04-27T13:26:29.713Z,29.40
2018-04-27T13:28:59.412Z,26.40
2018-04-27T13:31:27.030Z,26.30
2018-04-27T13:33:54.666Z,25.50
2018-04-27T13:36:22.386Z,25.90
2018-04-27T13:38:50.034Z,25.40
2018-04-27T13:41:17.705Z,25.50
2018-04-27T13:43:46.066Z,26.30
2018-04-27T13:46:13.664Z,26.20
2018-04-27T13:48:41.255Z,26.30
2018-04-27T13:51:08.853Z,25.80
2018-04-27T13:53:37.180Z,25.90
2018-04-27T13:56:05.046Z,26.00
2018-04-27T13:58:39.585Z,26.50
2018-04-27T14:01:07.220Z,26.90
2018-04-27T14:03:34.862Z,26.20
2018-04-27T14:06:02.527Z,26.10
2018-04-27T14:08:31.051Z,25.90
2018-04-27T14:10:59.664Z,26.30
2018-04-27T14:13:27.563Z,27.00
2018-04-27T14:15:55.943Z,27.90
2018-04-27T14:18:48.564Z,27.90
2018-04-27T14:21:16.244Z,27.50
2018-04-27T14:23:44.656Z,27.10
2018-04-27T14:26:12.292Z,27.10
2018-04-27T14:28:40.648Z,27.40
2018-04-27T14:31:08.986Z,27.80
2018-04-27T14:33:36.632Z,27.80
2018-04-27T14:36:09.962Z,28.50
2018-04-27T14:38:37.566Z,28.90
2018-04-27T14:41:05.162Z,28.90
2018-04-27T14:43:32.752Z,28.60
2018-04-27T14:46:00.346Z,28.90
2018-04-27T14:48:28.229Z,28.10
2018-04-27T14:50:55.992Z,28.10
2018-04-27T14:53:24.698Z,27.50
2018-04-27T14:56:02.316Z,27.50
2018-04-27T14:58:29.902Z,27.30
2018-04-27T15:00:57.519Z,27.30
2018-04-27T15:03:31.808Z,27.80
2018-04-27T15:06:01.309Z,27.30
2018-04-27T15:08:29.672Z,27.60
2018-04-27T15:10:58.305Z,27.60
2018-04-27T15:13:26.313Z,27.40
2018-04-27T15:15:54.144Z,27.70
2018-04-27T15:18:21.864Z,27.90
2018-04-27T15:20:49.500Z,28.20
2018-04-27T15:23:18.016Z,28.10
2018-04-27T15:25:47.405Z,27.70
2018-04-27T15:28:19.032Z,27.70
2018-04-27T15:30:46.588Z,26.60
2018-04-27T15:33:14.193Z,26.30
2018-04-27T15:35:42.571Z,25.90
2018-04-27T15:38:11.020Z,25.80
2018-04-27T15:40:38.631Z,25.70
2018-04-27T15:43:06.269Z,25.60
2018-04-27T15:45:33.877Z,25.60
2018-04-27T15:48:01.530Z,25.10
2018-04-27T15:50:29.215Z,24.90
2018-04-27T15:52:56.899Z,25.10
2018-04-27T15:55:25.709Z,25.50
2018-04-27T15:57:54.095Z,25.60
2018-04-27T16:00:22.582Z,25.60
2018-04-27T16:02:50.963Z,25.60
2018-04-27T16:05:19.343Z,25.50
2018-04-27T16:07:47.725Z,25.30
2018-04-27T16:10:16.248Z,24.90
2018-04-27T16:12:43.826Z,24.90
2018-04-27T16:15:12.314Z,24.50
2018-04-27T16:17:40.048Z,24.10
2018-04-27T16:20:07.732Z,23.60
2018-04-27T16:22:35.469Z,23.40
2018-04-27T16:25:03.850Z,22.90
2018-04-27T16:27:31.659Z,22.90
2018-04-27T16:29:59.456Z,22.30
2018-04-27T16:32:27.060Z,22.10
2018-04-27T16:34:54.666Z,22.00
2018-04-27T16:37:23.072Z,21.60
2018-04-27T16:39:50.684Z,21.60
2018-04-27T16:42:18.346Z,21.50
2018-04-27T16:44:46.746Z,21.30
2018-04-27T16:47:15.128Z,21.30
2018-04-27T16:49:42.776Z,21.20
2018-04-27T16:52:11.161Z,21.10
2018-04-27T16:54:39.554Z,21.10
2018-04-27T16:57:07.918Z,21.00
2018-04-27T16:59:36.316Z,21.00
2018-04-27T17:02:04.862Z,20.90
2018-04-27T17:04:32.628Z,20.90
2018-04-27T17:07:00.666Z,20.70
2018-04-27T17:09:28.335Z,20.70
2018-04-27T17:11:57.124Z,20.50
2018-04-27T17:14:24.773Z,20.50
2018-04-27T17:16:52.477Z,20.50
2018-04-27T17:19:20.248Z,20.40
2018-04-27T17:21:49.398Z,20.40
2018-04-27T17:24:17.147Z,20.50
2018-04-27T17:26:44.784Z,20.40
2018-04-27T17:29:12.354Z,20.40
2018-04-27T17:31:39.932Z,20.30
2018-04-27T17:34:07.674Z,20.20
2018-04-27T17:36:35.284Z,20.10
2018-04-27T17:39:02.913Z,20.00
2018-04-27T17:41:30.551Z,19.90
2018-04-27T17:43:58.273Z,19.70
2018-04-27T17:46:25.914Z,19.70
2018-04-27T17:48:53.563Z,19.60
2018-04-27T17:51:21.135Z,19.50
2018-04-27T17:53:49.000Z,19.40
2018-04-27T17:56:16.606Z,19.30
2018-04-27T17:59:03.419Z,19.30
2018-04-27T18:01:31.178Z,19.20
2018-04-27T18:03:59.675Z,19.00
2018-04-27T18:06:30.839Z,18.90
2018-04-27T18:08:58.493Z,18.90
2018-04-27T18:11:26.332Z,18.80
2018-04-27T18:13:53.926Z,18.70
2018-04-27T18:16:21.623Z,18.60
2018-04-27T18:18:49.249Z,18.50
2018-04-27T18:21:20.521Z,18.40
2018-04-27T18:23:48.117Z,18.40
2018-04-27T18:26:19.425Z,18.30
2018-04-27T18:28:47.324Z,18.20
2018-04-27T18:31:15.637Z,18.10
2018-04-27T18:33:43.237Z,18.10
2018-04-27T18:36:11.771Z,17.90
2018-04-27T18:38:45.805Z,17.90
2018-04-27T18:41:13.908Z,17.80
2018-04-27T18:43:42.602Z,17.80
2018-04-27T18:46:10.990Z,17.70
2018-04-27T18:48:38.579Z,17.70
2018-04-27T18:51:06.943Z,17.60
2018-04-27T18:53:35.814Z,17.50
2018-04-27T18:56:07.179Z,17.50
2018-04-27T19:01:35.275Z,17.30
2018-04-27T19:04:02.873Z,17.30
2018-04-27T19:06:30.484Z,17.30
2018-04-27T19:08:58.111Z,17.20
2018-04-27T19:11:27.638Z,17.10
2018-04-27T19:13:55.325Z,17.10
2018-04-27T19:16:23.693Z,17.00
2018-04-27T19:18:56.341Z,16.90
2018-04-27T19:21:24.005Z,16.90
2018-04-27T19:23:51.597Z,16.80
2018-04-27T19:26:19.161Z,16.80
2018-04-27T19:28:46.787Z,16.80
2018-04-27T19:31:14.359Z,16.70
2018-04-27T19:33:42.024Z,16.60
2018-04-27T19:36:09.625Z,16.60
2018-04-27T19:38:38.010Z,16.50
2018-04-27T19:41:06.391Z,16.40
2018-04-27T19:43:34.022Z,16.40
2018-04-27T19:46:01.656Z,16.40
2018-04-27T19:48:29.234Z,16.30
2018-04-27T19:50:56.839Z,16.30
2018-04-27T19:53:24.421Z,16.20
2018-04-27T19:56:09.481Z,16.10
2018-04-27T19:58:37.181Z,16.10
2018-04-27T20:01:04.786Z,16.00
2018-04-27T20:03:33.124Z,15.90
2018-04-27T20:06:00.760Z,15.90
2018-04-27T20:08:28.365Z,15.80
2018-04-27T20:10:56.415Z,15.80
2018-04-27T20:13:24.179Z,15.80
2018-04-27T20:15:55.306Z,15.80
2018-04-27T20:18:28.099Z,15.70
2018-04-27T20:20:59.375Z,15.70
2018-04-27T20:23:31.228Z,15.70
2018-04-27T20:26:00.456Z,15.60
2018-04-27T20:28:30.895Z,15.70
2018-04-27T20:30:58.477Z,15.60
2018-04-27T20:33:26.158Z,15.60
2018-04-27T20:36:02.978Z,15.60
2018-04-27T20:38:38.280Z,15.50
2018-04-27T20:41:06.700Z,15.50
2018-04-27T20:43:35.098Z,15.50
2018-04-27T20:46:02.885Z,15.40
2018-04-27T20:48:30.502Z,15.40
2018-04-27T20:50:59.690Z,15.40
2018-04-27T20:53:29.030Z,15.30
2018-04-27T20:55:59.208Z,15.30
2018-04-27T20:58:26.808Z,15.30
2018-04-27T21:00:54.428Z,15.30
2018-04-27T21:03:22.157Z,15.30
2018-04-27T21:05:49.820Z,15.30
2018-04-27T21:08:17.474Z,15.20
2018-04-27T21:10:45.078Z,15.20
2018-04-27T21:13:13.452Z,15.10
2018-04-27T21:15:41.857Z,15.00
2018-04-27T21:18:09.487Z,15.00
2018-04-27T21:20:37.072Z,15.00
2018-04-27T21:23:08.219Z,15.00
2018-04-27T21:25:37.494Z,14.90
2018-04-27T21:28:06.004Z,14.90
2018-04-27T21:30:33.807Z,14.90
2018-04-27T21:33:04.301Z,14.90
2018-04-27T21:35:38.655Z,14.90
2018-04-27T21:38:15.112Z,14.80
2018-04-27T21:40:42.730Z,14.80
2018-04-27T21:43:11.100Z,14.70
2018-04-27T21:45:38.700Z,14.70
2018-04-27T21:48:06.437Z,14.70
2018-04-27T21:50:34.811Z,14.80
2018-04-27T21:53:03.198Z,14.70
2018-04-27T21:55:31.573Z,14.70
2018-04-27T21:58:01.742Z,14.70
2018-04-27T22:00:30.176Z,14.70
2018-04-27T22:02:59.275Z,14.60
2018-04-27T22:05:29.832Z,14.60
2018-04-27T22:07:57.448Z,14.60
2018-04-27T22:10:25.069Z,14.50
2018-04-27T22:12:52.692Z,14.50
2018-04-27T22:15:21.058Z,14.40
2018-04-27T22:17:49.475Z,14.30
2018-04-27T22:20:18.076Z,14.30
2018-04-27T22:22:45.663Z,14.30
2018-04-27T22:25:18.972Z,14.30
2018-04-27T22:27:48.274Z,14.20
2018-04-27T22:30:37.547Z,14.20
2018-04-27T22:36:35.423Z,14.20
2018-04-27T22:42:15.546Z,14.10
2018-04-27T22:45:17.441Z,14.10
2018-04-27T22:47:46.916Z,14.10
2018-04-27T22:50:26.264Z,14.10
2018-04-27T22:52:54.758Z,14.00
2018-04-27T22:55:22.304Z,14.00
2018-04-27T22:58:01.666Z,14.00
2018-04-27T23:00:29.201Z,14.00
2018-04-27T23:02:56.752Z,13.90
2018-04-27T23:05:27.955Z,13.90
2018-04-27T23:08:00.092Z,13.90
2018-04-27T23:10:33.584Z,13.80
2018-04-27T23:13:02.998Z,13.80
2018-04-27T23:15:42.393Z,13.80
2018-04-27T23:18:21.496Z,13.70
2018-04-27T23:20:56.513Z,13.70
2018-04-27T23:23:24.028Z,13.70
2018-04-27T23:25:51.550Z,13.70
2018-04-27T23:28:19.886Z,13.60
2018-04-27T23:30:47.430Z,13.60
2018-04-27T23:33:14.990Z,13.60
2018-04-27T23:35:44.345Z,13.60
2018-04-27T23:38:12.632Z,13.50
2018-04-27T23:40:43.786Z,13.50
2018-04-27T23:43:12.236Z,13.40
2018-04-27T23:45:39.752Z,13.40
2018-04-27T23:48:07.279Z,13.40
2018-04-27T23:50:34.796Z,13.40
2018-04-27T23:53:02.306Z,13.30
2018-04-27T23:55:29.830Z,13.30
2018-04-27T23:57:58.130Z,13.30
